Time;durP1;ratioP1;P1;durP2;ratioP2;P2;SDS_P1;SDS_P2;PMS_P1;PMS_P2;Temp;Humidity;BMP_temperature;BMP_pressure;BME280_temperature;BME280_humidity;BME280_pressure;Samples;Min_cycle;Max_cycle;Signal;HPM_P1;HPM_P2
2023/06/03 00:01:21;;;;;;;7.10;3.85;;;12.40;99.90;;;;;;4993635;28;20033;-59
2023/06/03 00:03:47;;;;;;;6.18;4.20;;;12.30;99.90;;;;;;4995127;28;20025;-58
2023/06/03 00:06:13;;;;;;;6.15;4.20;;;12.30;99.90;;;;;;4998079;28;20022;-58
2023/06/03 00:08:39;;;;;;;5.50;4.40;;;12.20;99.90;;;;;;4998806;28;20036;-59
2023/06/03 00:11:05;;;;;;;9.85;4.55;;;12.10;99.90;;;;;;4996428;28;20173;-58
2023/06/03 00:13:31;;;;;;;7.07;4.18;;;12.10;99.90;;;;;;4998125;28;20120;-59
2023/06/03 00:15:56;;;;;;;6.25;4.93;;;12.10;99.90;;;;;;4996256;28;20466;-59
2023/06/03 00:18:23;;;;;;;7.30;4.28;;;12.10;99.90;;;;;;5002974;28;20660;-58
2023/06/03 00:20:49;;;;;;;10.65;4.07;;;12.10;99.90;;;;;;4997200;28;20109;-59
2023/06/03 00:23:17;;;;;;;8.27;4.00;;;12.10;99.90;;;;;;5002566;28;20199;-58
2023/06/03 00:25:43;;;;;;;8.38;4.05;;;12.00;99.90;;;;;;5013769;28;20030;-58
2023/06/03 00:28:09;;;;;;;6.13;4.13;;;12.00;99.90;;;;;;4998198;28;20495;-58
2023/06/03 00:30:35;;;;;;;8.43;5.15;;;12.00;99.90;;;;;;4999347;28;21181;-58
2023/06/03 00:33:01;;;;;;;9.10;4.55;;;12.00;99.90;;;;;;4996726;28;20042;-58
2023/06/03 00:35:27;;;;;;;8.45;5.18;;;11.90;99.90;;;;;;4993669;28;20045;-59
2023/06/03 00:37:54;;;;;;;7.30;4.47;;;11.90;99.90;;;;;;4998391;28;20030;-58
2023/06/03 00:40:20;;;;;;;8.90;4.88;;;11.90;99.90;;;;;;4995840;28;20019;-58
2023/06/03 00:42:46;;;;;;;6.22;4.40;;;11.90;99.90;;;;;;4998208;28;20042;-60
2023/06/03 00:45:11;;;;;;;5.65;3.85;;;11.80;99.90;;;;;;5001050;28;20026;-59
2023/06/03 00:47:38;;;;;;;5.25;4.47;;;11.80;99.90;;;;;;5000150;28;20031;-58
2023/06/03 00:50:07;;;;;;;5.32;4.07;;;11.80;99.90;;;;;;4996937;28;20042;-57
2023/06/03 00:52:33;;;;;;;7.30;4.68;;;11.70;99.90;;;;;;4997510;28;20056;-57
2023/06/03 00:54:59;;;;;;;10.85;5.22;;;11.70;99.90;;;;;;5001387;28;20037;-59
2023/06/03 00:57:26;;;;;;;8.27;4.45;;;11.60;99.90;;;;;;4995717;28;20026;-58
2023/06/03 00:59:52;;;;;;;7.90;4.10;;;11.70;99.90;;;;;;5002627;28;20025;-59
2023/06/03 01:02:19;;;;;;;7.93;4.28;;;11.60;99.90;;;;;;5002112;28;20025;-58
2023/06/03 01:04:47;;;;;;;8.55;4.43;;;11.60;99.90;;;;;;4998014;28;20041;-59
2023/06/03 01:07:40;;;;;;;8.10;4.07;;;11.60;99.90;;;;;;4998981;28;20057;-57
2023/06/03 01:10:27;;;;;;;7.53;4.88;;;11.60;99.90;;;;;;4999463;28;20088;-59
2023/06/03 01:13:06;;;;;;;6.57;4.75;;;11.60;99.90;;;;;;4998256;28;20026;-57
2023/06/03 01:15:34;;;;;;;9.20;4.90;;;11.60;99.90;;;;;;4996081;28;20113;-58
2023/06/03 01:18:03;;;;;;;8.13;4.60;;;11.70;99.90;;;;;;4995555;28;20125;-56
2023/06/03 01:20:30;;;;;;;8.88;4.95;;;11.70;99.90;;;;;;5000853;28;20033;-58
2023/06/03 01:23:23;;;;;;;5.85;4.10;;;11.70;99.90;;;;;;4995777;28;20030;-58
2023/06/03 01:25:51;;;;;;;5.25;4.13;;;11.80;99.90;;;;;;4997777;28;20034;-59
2023/06/03 01:28:18;;;;;;;8.02;4.43;;;11.80;99.90;;;;;;4998796;28;20030;-57
2023/06/03 01:30:44;;;;;;;6.50;4.03;;;11.70;99.90;;;;;;4997860;28;20766;-58
2023/06/03 01:33:11;;;;;;;7.28;4.05;;;11.70;99.90;;;;;;4995806;28;20089;-58
2023/06/03 01:35:38;;;;;;;6.15;3.97;;;11.70;99.90;;;;;;4996892;28;20057;-57
2023/06/03 01:38:05;;;;;;;5.63;4.00;;;11.70;99.90;;;;;;4996834;28;20462;-59
2023/06/03 01:40:31;;;;;;;4.75;4.07;;;11.70;99.90;;;;;;4997032;28;20030;-58
2023/06/03 01:42:57;;;;;;;4.53;4.05;;;11.70;99.90;;;;;;4998344;28;20033;-58
2023/06/03 01:45:22;;;;;;;6.22;4.22;;;11.60;99.90;;;;;;5000823;28;20048;-58
2023/06/03 01:47:48;;;;;;;9.38;4.07;;;11.60;99.90;;;;;;4994993;28;20034;-59
2023/06/03 01:50:16;;;;;;;5.78;3.90;;;11.60;99.90;;;;;;4994588;28;21230;-57
2023/06/03 01:52:44;;;;;;;9.38;4.43;;;11.50;99.90;;;;;;4996740;28;20063;-58
2023/06/03 01:55:10;;;;;;;12.50;4.13;;;11.50;99.90;;;;;;4991977;28;20045;-58
2023/06/03 01:57:36;;;;;;;7.75;3.60;;;11.40;99.90;;;;;;5001604;28;20034;-59
2023/06/03 02:00:06;;;;;;;6.72;3.58;;;11.40;99.90;;;;;;5000562;28;20045;-57
2023/06/03 02:02:32;;;;;;;5.63;3.53;;;11.40;99.90;;;;;;4997055;28;20510;-59
2023/06/03 02:04:58;;;;;;;9.77;3.90;;;11.30;99.90;;;;;;4998256;28;20031;-57
2023/06/03 02:07:25;;;;;;;9.20;3.45;;;11.30;99.90;;;;;;4996765;28;20037;-59
2023/06/03 02:09:52;;;;;;;5.78;3.70;;;11.30;99.90;;;;;;4998180;28;20033;-58
2023/06/03 02:12:19;;;;;;;6.22;3.20;;;11.30;99.90;;;;;;4993384;28;20470;-59
2023/06/03 02:14:46;;;;;;;7.90;3.58;;;11.30;99.90;;;;;;4997008;28;20041;-59
2023/06/03 02:17:11;;;;;;;6.05;3.20;;;11.30;99.90;;;;;;4997691;28;20406;-58
2023/06/03 02:19:38;;;;;;;5.63;3.45;;;11.30;99.90;;;;;;4998484;28;20041;-58
2023/06/03 02:22:05;;;;;;;4.35;3.22;;;11.30;99.90;;;;;;4998128;28;20663;-59
2023/06/03 02:24:32;;;;;;;6.25;3.08;;;11.30;99.90;;;;;;5005716;28;20397;-59
2023/06/03 02:27:01;;;;;;;5.10;3.35;;;11.30;99.90;;;;;;4996431;28;20021;-58
2023/06/03 02:29:27;;;;;;;3.90;3.05;;;11.40;99.90;;;;;;4995567;28;20033;-58
2023/06/03 02:31:58;;;;;;;5.43;3.00;;;11.40;99.90;;;;;;4996069;28;20038;-58
2023/06/03 02:34:24;;;;;;;6.77;3.30;;;11.30;99.90;;;;;;4998192;28;20026;-59
2023/06/03 02:36:52;;;;;;;9.90;3.50;;;11.30;99.90;;;;;;4997954;28;20742;-58
2023/06/03 02:39:18;;;;;;;8.15;3.80;;;11.20;99.90;;;;;;4992961;28;20019;-58
2023/06/03 02:41:45;;;;;;;5.07;2.88;;;11.10;99.90;;;;;;4996781;28;20039;-57
2023/06/03 02:44:11;;;;;;;7.72;3.10;;;11.10;99.90;;;;;;4995482;28;20441;-59
2023/06/03 02:46:37;;;;;;;4.65;3.25;;;11.10;99.90;;;;;;4996458;28;20018;-58
2023/06/03 02:49:04;;;;;;;5.32;2.88;;;11.00;99.90;;;;;;4998155;28;20989;-58
2023/06/03 02:51:30;;;;;;;4.32;3.28;;;11.00;99.90;;;;;;4994733;28;20085;-58
2023/06/03 02:53:56;;;;;;;7.43;3.13;;;11.00;99.90;;;;;;4996162;28;20038;-58
2023/06/03 02:56:22;;;;;;;4.50;2.58;;;10.90;99.90;;;;;;4995232;28;20029;-58
2023/06/03 02:58:51;;;;;;;5.28;3.38;;;10.90;99.90;;;;;;4996632;28;20454;-58
2023/06/03 03:01:20;;;;;;;3.55;2.88;;;10.70;99.90;;;;;;4999039;28;20026;-58
2023/06/03 03:03:46;;;;;;;5.15;3.05;;;10.60;99.90;;;;;;4997207;28;20031;-59
2023/06/03 03:06:15;;;;;;;5.13;2.97;;;10.50;99.90;;;;;;4995691;28;20022;-58
2023/06/03 03:08:41;;;;;;;4.50;2.95;;;10.40;99.90;;;;;;4995454;28;20035;-59
2023/06/03 03:11:09;;;;;;;7.00;3.00;;;10.30;99.90;;;;;;4994914;28;20034;-58
2023/06/03 03:13:35;;;;;;;4.80;2.78;;;10.40;99.90;;;;;;4996503;28;20099;-58
2023/06/03 03:16:01;;;;;;;3.55;2.88;;;10.30;99.90;;;;;;4994357;28;20037;-58
2023/06/03 03:18:26;;;;;;;4.63;3.15;;;10.40;99.90;;;;;;4997760;28;20014;-58
2023/06/03 03:20:52;;;;;;;4.25;2.35;;;10.40;99.90;;;;;;4995365;28;20484;-58
2023/06/03 03:23:18;;;;;;;4.07;2.80;;;10.50;99.90;;;;;;4995491;28;20026;-58
2023/06/03 03:25:45;;;;;;;3.65;2.50;;;10.50;99.90;;;;;;4996906;28;20027;-57
2023/06/03 03:28:11;;;;;;;3.35;3.05;;;10.60;99.90;;;;;;4996232;28;20049;-58
2023/06/03 03:30:37;;;;;;;2.95;2.40;;;10.60;99.90;;;;;;4996900;28;20023;-59
2023/06/03 03:33:04;;;;;;;2.40;2.00;;;10.70;99.90;;;;;;4994561;28;20056;-59
2023/06/03 03:35:30;;;;;;;4.28;2.65;;;10.70;99.90;;;;;;4997659;28;20394;-58
2023/06/03 03:38:04;;;;;;;5.25;2.75;;;10.80;99.90;;;;;;4997454;28;20022;-58
2023/06/03 03:40:31;;;;;;;4.45;2.60;;;10.80;99.90;;;;;;4995508;28;20033;-59
2023/06/03 03:42:58;;;;;;;4.13;2.40;;;10.80;99.90;;;;;;5001237;28;20038;-59
2023/06/03 03:45:30;;;;;;;4.53;2.95;;;10.90;99.90;;;;;;5000730;28;20516;-59
2023/06/03 03:48:07;;;;;;;4.25;2.50;;;10.90;99.90;;;;;;4998757;28;20101;-59
2023/06/03 03:50:50;;;;;;;5.57;3.10;;;10.90;99.90;;;;;;4997859;28;20046;-59
2023/06/03 03:53:21;;;;;;;6.95;3.10;;;11.00;99.90;;;;;;4998959;28;20418;-58
2023/06/03 03:55:48;;;;;;;3.10;2.35;;;11.00;99.90;;;;;;4998685;28;20046;-57
2023/06/03 03:58:19;;;;;;;5.93;3.10;;;11.00;99.90;;;;;;5001332;28;20025;-57
2023/06/03 04:00:45;;;;;;;10.50;2.45;;;11.10;99.90;;;;;;5000736;28;20073;-59
2023/06/03 04:03:12;;;;;;;3.42;2.55;;;11.10;99.90;;;;;;5003773;28;20873;-58
2023/06/03 04:05:38;;;;;;;5.22;2.67;;;11.20;99.90;;;;;;4998728;28;20064;-59
2023/06/03 04:08:04;;;;;;;3.22;2.42;;;11.20;99.90;;;;;;4997470;28;20586;-59
2023/06/03 04:10:30;;;;;;;6.10;2.22;;;11.30;99.90;;;;;;4995435;28;20026;-58
2023/06/03 04:12:56;;;;;;;3.13;2.15;;;11.30;99.90;;;;;;4999225;28;20106;-59
2023/06/03 04:15:30;;;;;;;3.05;2.53;;;11.30;99.90;;;;;;5000874;28;20028;-58
2023/06/03 04:17:56;;;;;;;5.25;2.90;;;11.30;99.90;;;;;;4997595;28;20042;-58
2023/06/03 04:20:35;;;;;;;4.60;2.15;;;11.30;99.90;;;;;;4999813;28;20029;-59
2023/06/03 04:23:05;;;;;;;6.90;2.38;;;11.30;99.90;;;;;;4998453;28;20032;-58
2023/06/03 04:25:31;;;;;;;4.40;2.67;;;11.40;99.90;;;;;;4998411;28;20022;-58
2023/06/03 04:27:57;;;;;;;5.55;2.58;;;11.40;99.90;;;;;;4998738;28;20014;-59
2023/06/03 04:30:22;;;;;;;4.97;2.53;;;11.40;99.90;;;;;;5004504;28;20041;-58
2023/06/03 04:32:49;;;;;;;3.53;2.85;;;11.50;99.90;;;;;;4996997;28;20042;-59
2023/06/03 04:35:15;;;;;;;4.43;3.10;;;11.50;99.90;;;;;;4997878;28;20042;-58
2023/06/03 04:37:40;;;;;;;3.50;2.20;;;11.60;99.90;;;;;;4996809;28;20040;-57
2023/06/03 04:40:08;;;;;;;12.50;3.17;;;11.60;99.90;;;;;;4998516;28;20027;-58
2023/06/03 04:42:34;;;;;;;5.60;3.35;;;11.70;99.90;;;;;;4998430;28;20095;-58
2023/06/03 04:45:01;;;;;;;3.58;2.58;;;11.70;99.90;;;;;;4993753;28;20498;-58
2023/06/03 04:47:28;;;;;;;5.72;2.50;;;11.80;99.90;;;;;;5001968;28;20041;-58
2023/06/03 04:49:54;;;;;;;3.90;2.25;;;11.80;99.90;;;;;;4994052;28;20046;-59
2023/06/03 04:52:20;;;;;;;3.55;2.20;;;11.90;99.90;;;;;;4999828;28;20117;-59
2023/06/03 04:54:46;;;;;;;4.35;2.63;;;11.90;99.90;;;;;;4994675;28;20140;-58
2023/06/03 04:57:12;;;;;;;2.67;2.40;;;12.00;99.90;;;;;;5000103;28;20029;-58
2023/06/03 04:59:37;;;;;;;5.00;2.20;;;12.00;99.90;;;;;;4999284;28;20046;-58
2023/06/03 05:02:03;;;;;;;4.15;2.13;;;12.00;99.90;;;;;;4995907;28;20418;-59
2023/06/03 05:04:29;;;;;;;7.05;2.17;;;12.10;99.90;;;;;;4997277;28;20505;-57
2023/06/03 05:06:55;;;;;;;5.07;2.78;;;12.10;99.90;;;;;;4999517;28;20486;-57
2023/06/03 05:09:21;;;;;;;4.13;2.50;;;12.20;99.90;;;;;;4999173;28;20447;-57
2023/06/03 05:11:47;;;;;;;4.25;2.00;;;12.20;99.90;;;;;;5001367;28;20116;-59
2023/06/03 05:14:13;;;;;;;2.60;1.80;;;12.30;99.90;;;;;;5000921;28;20022;-59
2023/06/03 05:16:38;;;;;;;6.07;2.65;;;12.30;99.90;;;;;;5001368;28;20041;-57
2023/06/03 05:19:04;;;;;;;4.43;2.42;;;12.40;99.90;;;;;;4999752;28;20121;-57
2023/06/03 05:21:30;;;;;;;3.25;2.13;;;12.50;99.90;;;;;;5000454;28;20022;-57
2023/06/03 05:23:55;;;;;;;2.75;2.00;;;12.50;99.90;;;;;;5001409;28;20491;-58
2023/06/03 05:26:22;;;;;;;8.35;2.55;;;12.60;99.90;;;;;;5000339;28;20021;-58
2023/06/03 05:28:48;;;;;;;5.13;2.78;;;12.70;99.90;;;;;;5001433;28;20494;-58
2023/06/03 05:31:14;;;;;;;8.80;3.45;;;12.80;99.90;;;;;;5000158;28;20084;-59
2023/06/03 05:33:41;;;;;;;3.33;2.67;;;12.80;99.90;;;;;;5000955;28;20021;-58
2023/06/03 05:36:07;;;;;;;4.00;2.20;;;12.90;99.90;;;;;;4999506;28;20068;-57
2023/06/03 05:38:33;;;;;;;5.15;2.75;;;13.00;99.90;;;;;;5002352;28;20067;-58
2023/06/03 05:41:02;;;;;;;4.57;2.25;;;13.10;99.90;;;;;;4999915;28;20065;-58
2023/06/03 05:43:28;;;;;;;3.88;2.05;;;13.10;99.90;;;;;;5001461;28;20022;-58
2023/06/03 05:45:54;;;;;;;4.35;2.30;;;13.20;99.90;;;;;;5001928;28;20022;-59
2023/06/03 05:48:19;;;;;;;3.78;1.73;;;13.30;99.90;;;;;;4998944;28;21109;-59
2023/06/03 05:50:53;;;;;;;5.25;2.15;;;13.30;99.90;;;;;;5000667;28;20044;-57
2023/06/03 05:53:25;;;;;;;3.90;1.88;;;13.50;99.90;;;;;;4999215;28;20034;-58
2023/06/03 05:55:51;;;;;;;;;;;13.50;99.90;;;;;;4963913;28;20038;-59
2023/06/03 05:58:17;;;;;;;6.82;2.25;;;13.60;99.90;;;;;;4998204;28;19920;-59
2023/06/03 06:00:43;;;;;;;4.75;2.67;;;13.70;99.90;;;;;;4997175;28;20076;-58
2023/06/03 06:03:09;;;;;;;3.20;1.77;;;13.70;99.90;;;;;;4999015;28;20074;-59
2023/06/03 06:05:35;;;;;;;5.78;1.90;;;13.80;99.90;;;;;;4994315;28;20060;-60
2023/06/03 06:08:00;;;;;;;8.90;2.42;;;13.90;99.90;;;;;;4993049;28;20030;-58
2023/06/03 06:10:27;;;;;;;2.80;1.67;;;13.90;99.90;;;;;;4997095;28;20787;-59
2023/06/03 06:12:52;;;;;;;3.53;1.92;;;14.00;99.80;;;;;;4996214;28;20061;-59
2023/06/03 06:15:18;;;;;;;3.97;1.83;;;14.10;99.90;;;;;;4997621;28;20174;-59
2023/06/03 06:17:43;;;;;;;3.60;1.88;;;14.20;99.70;;;;;;4996165;28;20026;-59
2023/06/03 06:20:12;;;;;;;4.90;2.28;;;14.30;99.90;;;;;;4998387;28;20042;-58
2023/06/03 06:22:38;;;;;;;8.93;2.40;;;14.40;99.10;;;;;;4996930;28;20027;-58
2023/06/03 06:25:05;;;;;;;11.82;2.20;;;14.50;97.50;;;;;;4996502;28;20507;-59
2023/06/03 06:27:31;;;;;;;7.57;2.17;;;14.60;97.70;;;;;;4998695;28;20010;-59
2023/06/03 06:29:57;;;;;;;3.25;1.90;;;14.70;97.40;;;;;;4998498;28;20065;-60
2023/06/03 06:32:25;;;;;;;6.28;2.05;;;14.70;97.80;;;;;;4995801;28;20105;-59
2023/06/03 06:34:52;;;;;;;3.20;1.80;;;14.70;98.20;;;;;;4993292;28;20072;-60
2023/06/03 06:37:19;;;;;;;4.43;1.67;;;14.80;95.40;;;;;;4998217;28;20025;-58
2023/06/03 06:39:45;;;;;;;2.33;1.70;;;14.90;96.70;;;;;;4997667;28;20112;-59
2023/06/03 06:42:11;;;;;;;4.22;2.03;;;15.00;95.40;;;;;;4997767;28;20064;-59
2023/06/03 06:44:47;;;;;;;5.35;1.73;;;15.00;96.20;;;;;;4997824;28;20394;-58
2023/06/03 06:47:27;;;;;;;2.63;1.98;;;15.10;94.90;;;;;;4997165;28;20030;-59
2023/06/03 06:49:56;;;;;;;5.63;2.08;;;15.20;96.10;;;;;;4994793;28;20041;-60
2023/06/03 06:52:25;;;;;;;3.00;1.67;;;15.20;92.80;;;;;;4998884;28;20041;-59
2023/06/03 06:54:58;;;;;;;3.10;1.83;;;15.30;93.70;;;;;;4998723;28;20490;-58
2023/06/03 06:57:28;;;;;;;3.17;1.70;;;15.30;92.60;;;;;;4994728;28;20377;-58
2023/06/03 06:59:54;;;;;;;6.28;1.60;;;15.40;94.10;;;;;;4997073;28;20045;-58
2023/06/03 07:02:20;;;;;;;3.58;2.05;;;15.40;92.30;;;;;;4996069;28;20026;-59
2023/06/03 07:04:50;;;;;;;2.70;1.80;;;15.50;92.50;;;;;;4993565;28;20027;-59
2023/06/03 07:07:17;;;;;;;3.47;1.50;;;15.60;93.40;;;;;;4993389;28;20409;-59
2023/06/03 07:09:42;;;;;;;2.53;1.63;;;15.70;93.10;;;;;;4996291;28;20217;-59
2023/06/03 07:12:09;;;;;;;3.05;2.15;;;15.80;91.00;;;;;;4995529;28;20155;-60
2023/06/03 07:14:35;;;;;;;3.55;1.52;;;15.90;88.40;;;;;;4996189;28;20038;-59
2023/06/03 07:17:01;;;;;;;3.65;1.50;;;16.00;89.30;;;;;;4998068;28;20027;-58
2023/06/03 07:19:31;;;;;;;4.63;1.65;;;16.10;90.50;;;;;;4999992;28;20382;-59
2023/06/03 07:21:57;;;;;;;7.40;1.70;;;16.10;88.60;;;;;;4996561;28;20034;-60
2023/06/03 07:24:23;;;;;;;3.58;1.63;;;16.20;83.90;;;;;;5003489;28;20387;-59
2023/06/03 07:26:49;;;;;;;2.78;1.80;;;16.30;82.50;;;;;;4998406;28;20030;-59
2023/06/03 07:29:15;;;;;;;3.67;1.58;;;16.40;84.00;;;;;;5001472;28;20053;-59
2023/06/03 07:31:41;;;;;;;2.55;1.50;;;16.50;82.40;;;;;;4996676;28;20517;-58
2023/06/03 07:34:08;;;;;;;3.15;1.55;;;16.50;80.30;;;;;;5005708;28;20049;-58
2023/06/03 07:36:34;;;;;;;2.65;1.33;;;16.60;80.80;;;;;;5000890;28;20479;-59
2023/06/03 07:39:08;;;;;;;4.78;1.60;;;16.70;80.80;;;;;;5000800;28;20092;-60
2023/06/03 07:41:41;;;;;;;5.60;1.38;;;16.80;79.50;;;;;;4998516;28;20038;-59
2023/06/03 07:44:08;;;;;;;2.13;1.38;;;16.80;76.70;;;;;;5002600;28;20056;-58
2023/06/03 07:46:48;;;;;;;3.47;1.75;;;16.80;77.80;;;;;;5002736;28;20041;-59
2023/06/03 07:49:19;;;;;;;4.60;1.50;;;16.90;76.90;;;;;;5002720;28;20042;-59
2023/06/03 07:51:46;;;;;;;3.03;1.33;;;17.00;75.70;;;;;;4996638;28;20502;-58
2023/06/03 07:54:13;;;;;;;5.50;1.48;;;17.10;74.10;;;;;;4998827;28;20032;-58
2023/06/03 07:56:38;;;;;;;2.22;1.58;;;17.10;72.30;;;;;;4998796;28;20026;-58
2023/06/03 07:59:05;;;;;;;6.10;1.67;;;17.10;75.20;;;;;;5000351;28;20034;-59
2023/06/03 08:01:33;;;;;;;6.25;2.10;;;17.20;74.90;;;;;;5001200;28;20026;-58
2023/06/03 08:04:27;;;;;;;11.18;1.55;;;17.30;74.20;;;;;;4999082;28;20018;-59
2023/06/03 08:06:53;;;;;;;4.05;1.60;;;17.40;70.00;;;;;;4993463;28;20060;-59
2023/06/03 08:09:27;;;;;;;4.53;1.40;;;17.50;69.90;;;;;;4999158;28;20037;-58
2023/06/03 08:11:57;;;;;;;3.40;1.50;;;17.60;70.80;;;;;;4998997;28;20038;-58
2023/06/03 08:14:25;;;;;;;6.47;1.60;;;17.60;71.10;;;;;;4999200;28;20026;-60
2023/06/03 08:16:51;;;;;;;3.17;1.70;;;17.70;71.70;;;;;;4997728;28;20046;-59
2023/06/03 08:19:18;;;;;;;4.32;1.92;;;17.70;72.20;;;;;;5001255;28;20029;-59
2023/06/03 08:21:48;;;;;;;5.32;1.50;;;17.70;72.80;;;;;;4999899;28;20113;-60
2023/06/03 08:24:14;;;;;;;2.63;1.70;;;17.80;70.60;;;;;;5001134;28;20511;-60
2023/06/03 08:26:48;;;;;;;3.65;1.60;;;17.80;72.10;;;;;;4996827;28;20030;-58
2023/06/03 08:29:14;;;;;;;3.45;1.42;;;17.90;73.30;;;;;;4998423;28;20033;-58
2023/06/03 08:31:39;;;;;;;4.80;1.88;;;18.00;70.60;;;;;;5002494;28;20085;-59
2023/06/03 08:34:05;;;;;;;4.65;1.63;;;18.00;73.30;;;;;;4999719;28;20482;-59
2023/06/03 08:36:32;;;;;;;4.82;1.60;;;18.20;71.10;;;;;;4999312;28;20386;-58
2023/06/03 08:38:58;;;;;;;3.85;1.80;;;18.20;70.70;;;;;;4998952;28;20109;-59
2023/06/03 08:41:38;;;;;;;4.47;2.08;;;18.30;71.90;;;;;;5000918;28;20088;-59
2023/06/03 08:44:21;;;;;;;3.88;1.77;;;18.40;69.50;;;;;;5001449;28;20034;-60
2023/06/03 08:47:00;;;;;;;5.20;1.75;;;18.50;68.90;;;;;;4998327;28;20425;-60
2023/06/03 08:49:36;;;;;;;10.23;1.70;;;18.60;66.90;;;;;;4996526;28;20081;-59
2023/06/03 08:52:03;;;;;;;9.70;1.85;;;18.60;66.70;;;;;;4995478;28;20153;-59
2023/06/03 08:54:31;;;;;;;4.18;1.88;;;18.60;68.40;;;;;;4996862;28;20471;-58
2023/06/03 08:57:05;;;;;;;2.78;1.85;;;18.60;69.00;;;;;;4997730;28;20042;-59
2023/06/03 08:59:33;;;;;;;6.13;1.90;;;18.60;69.00;;;;;;4999716;28;20129;-58
2023/06/03 09:02:04;;;;;;;3.70;2.00;;;18.60;70.30;;;;;;4997795;28;20034;-58
2023/06/03 09:04:31;;;;;;;7.90;1.98;;;18.70;70.30;;;;;;4996903;28;20037;-59
2023/06/03 09:06:58;;;;;;;3.55;1.67;;;18.90;68.70;;;;;;4999634;28;20105;-59
2023/06/03 09:09:27;;;;;;;1.52;1.42;;;18.90;68.00;;;;;;4997792;28;20482;-58
2023/06/03 09:11:54;;;;;;;2.03;1.80;;;19.10;69.00;;;;;;5000191;28;20038;-60
2023/06/03 09:14:20;;;;;;;2.40;1.55;;;19.20;65.40;;;;;;5001222;28;20034;-59
2023/06/03 09:16:46;;;;;;;3.50;2.03;;;19.40;64.80;;;;;;4997930;28;20050;-61
2023/06/03 09:19:12;;;;;;;3.58;1.95;;;19.40;66.50;;;;;;4999257;28;20037;-59
2023/06/03 09:21:42;;;;;;;2.70;2.00;;;19.50;66.70;;;;;;4999289;28;20018;-60
2023/06/03 09:24:10;;;;;;;2.77;2.17;;;19.60;66.20;;;;;;5000725;28;20031;-60
2023/06/03 09:26:36;;;;;;;9.10;1.88;;;19.70;66.80;;;;;;4999005;28;20030;-59
2023/06/03 09:29:02;;;;;;;3.58;1.77;;;19.80;66.30;;;;;;4996661;28;20048;-59
2023/06/03 09:31:29;;;;;;;7.57;2.10;;;19.90;63.30;;;;;;4998868;28;20029;-60
2023/06/03 09:33:55;;;;;;;3.65;1.95;;;20.00;64.90;;;;;;4999405;28;20034;-59
2023/06/03 09:36:21;;;;;;;3.67;2.35;;;20.00;64.70;;;;;;4999571;28;20121;-59
2023/06/03 09:38:51;;;;;;;2.72;2.17;;;20.10;65.60;;;;;;4997832;28;20135;-58
2023/06/03 09:41:19;;;;;;;6.37;2.23;;;20.30;64.20;;;;;;4999844;28;20026;-59
2023/06/03 09:44:02;;;;;;;2.28;1.73;;;20.30;64.00;;;;;;4995738;28;20270;-59
2023/06/03 09:46:32;;;;;;;6.03;2.58;;;20.40;61.10;;;;;;4998255;28;20045;-59
2023/06/03 09:49:17;;;;;;;3.47;2.20;;;20.60;61.40;;;;;;4998487;28;20022;-59
2023/06/03 09:51:45;;;;;;;4.70;2.22;;;20.80;64.60;;;;;;5002840;28;20121;-58
2023/06/03 09:54:14;;;;;;;3.35;1.92;;;20.90;63.50;;;;;;5001429;28;20458;-60
2023/06/03 09:56:40;;;;;;;3.55;1.83;;;21.00;62.70;;;;;;4996398;28;20049;-59
2023/06/03 09:59:20;;;;;;;3.70;2.05;;;21.20;65.10;;;;;;5000341;28;20992;-59
2023/06/03 10:01:47;;;;;;;3.92;2.25;;;21.20;61.10;;;;;;4993695;28;20763;-59
2023/06/03 10:04:22;;;;;;;3.22;1.80;;;21.20;60.70;;;;;;4998453;28;20057;-59
2023/06/03 10:07:08;;;;;;;5.57;1.77;;;21.10;61.60;;;;;;4995013;28;20030;-59
2023/06/03 10:09:34;;;;;;;3.60;2.22;;;21.10;59.60;;;;;;4998549;28;20042;-59
2023/06/03 10:12:00;;;;;;;2.63;1.85;;;21.10;59.10;;;;;;5001745;28;20253;-59
2023/06/03 10:14:26;;;;;;;3.83;2.00;;;21.10;61.10;;;;;;4993732;28;20035;-60
2023/06/03 10:17:11;;;;;;;5.93;1.70;;;21.20;59.20;;;;;;4997283;28;20042;-59
2023/06/03 10:19:38;;;;;;;4.20;1.98;;;21.50;60.30;;;;;;4999624;28;20030;-60
2023/06/03 10:22:06;;;;;;;4.20;1.80;;;21.60;57.00;;;;;;4999441;28;20061;-58
2023/06/03 10:24:34;;;;;;;4.82;1.90;;;21.50;58.50;;;;;;4999480;28;20024;-59
2023/06/03 10:27:01;;;;;;;2.30;1.67;;;21.50;57.70;;;;;;4996445;28;20034;-59
2023/06/03 10:29:29;;;;;;;3.58;1.95;;;21.30;58.10;;;;;;4998073;28;20030;-60
2023/06/03 10:31:57;;;;;;;2.60;1.40;;;21.40;59.10;;;;;;4999732;28;20561;-60
2023/06/03 10:34:23;;;;;;;3.45;1.42;;;21.50;58.20;;;;;;5000264;28;20045;-57
2023/06/03 10:36:56;;;;;;;1.67;1.40;;;21.60;58.00;;;;;;4998805;28;20034;-60
2023/06/03 10:39:25;;;;;;;3.05;1.88;;;21.70;58.00;;;;;;4999678;28;20026;-59
2023/06/03 10:41:56;;;;;;;8.38;1.83;;;21.70;56.30;;;;;;4997410;28;20056;-60
2023/06/03 10:44:22;;;;;;;;;;;21.70;57.90;;;;;;5000474;28;20029;-60
2023/06/03 10:47:11;;;;;;;3.72;1.70;;;21.80;56.00;;;;;;4999284;28;19925;-59
2023/06/03 10:49:45;;;;;;;3.25;1.55;;;21.80;56.40;;;;;;4997726;28;20035;-60
2023/06/03 10:52:39;;;;;;;2.15;1.67;;;21.60;56.50;;;;;;4998984;28;20096;-60
2023/06/03 10:55:16;;;;;;;4.93;1.90;;;21.70;54.50;;;;;;4998686;28;20084;-60
2023/06/03 10:57:49;;;;;;;5.53;1.73;;;21.70;55.80;;;;;;5000456;28;20032;-60
2023/06/03 11:00:53;;;;;;;3.08;1.60;;;21.80;55.00;;;;;;4996525;28;20426;-59
2023/06/03 11:03:21;;;;;;;5.07;1.63;;;22.00;55.40;;;;;;5001860;28;20517;-59
2023/06/03 11:05:47;;;;;;;2.35;1.50;;;22.00;54.70;;;;;;4996754;28;20045;-59
2023/06/03 11:08:13;;;;;;;3.60;1.70;;;22.00;51.80;;;;;;4996504;28;20026;-60
2023/06/03 11:10:43;;;;;;;2.20;1.50;;;22.00;53.00;;;;;;4996617;28;20034;-59
2023/06/03 11:13:11;;;;;;;3.13;1.33;;;22.10;52.40;;;;;;4997647;28;20033;-59
2023/06/03 11:16:02;;;;;;;61.13;4.78;;;22.10;51.90;;;;;;4996869;28;21396;-60
2023/06/03 11:18:30;;;;;;;4.35;1.90;;;22.00;52.10;;;;;;4995488;28;20391;-58
2023/06/03 11:20:56;;;;;;;1.63;1.30;;;22.00;51.90;;;;;;4994760;28;20066;-59
2023/06/03 11:23:44;;;;;;;4.57;1.67;;;22.10;50.60;;;;;;4994870;28;20037;-59
2023/06/03 11:26:42;;;;;;;2.40;1.50;;;22.10;51.70;;;;;;4995867;28;20039;-59
2023/06/03 11:29:45;;;;;;;4.50;1.80;;;22.10;50.70;;;;;;4956468;28;20041;-60
2023/06/03 11:32:18;;;;;;;2.50;1.40;;;22.10;52.60;;;;;;5000359;28;20533;-59
2023/06/03 11:34:45;;;;;;;4.07;1.40;;;22.20;51.60;;;;;;4997743;28;20122;-60
2023/06/03 11:37:13;;;;;;;5.80;1.50;;;22.20;50.20;;;;;;4996139;28;20034;-60
2023/06/03 11:40:01;;;;;;;3.90;1.30;;;22.20;50.00;;;;;;5002595;28;20018;-59
2023/06/03 11:42:27;;;;;;;3.38;1.30;;;22.20;49.00;;;;;;4993832;28;20048;-59
2023/06/03 11:44:53;;;;;;;4.32;1.55;;;22.30;50.90;;;;;;4992834;28;20795;-60
2023/06/03 11:47:18;;;;;;;2.78;1.30;;;22.40;50.80;;;;;;4996750;28;20043;-59
2023/06/03 11:49:45;;;;;;;2.80;1.45;;;22.40;51.40;;;;;;4997413;28;20048;-60
2023/06/03 11:52:11;;;;;;;4.20;1.60;;;22.40;49.60;;;;;;4998560;28;20058;-59
2023/06/03 11:54:38;;;;;;;4.18;1.70;;;22.40;49.80;;;;;;4997543;28;20441;-60
2023/06/03 11:57:05;;;;;;;5.63;1.35;;;22.40;50.90;;;;;;4997495;28;20092;-59
2023/06/03 11:59:37;;;;;;;5.30;1.52;;;22.50;49.60;;;;;;4992038;28;20384;-60
2023/06/03 12:02:04;;;;;;;1.75;1.40;;;22.30;48.50;;;;;;4996495;28;20026;-59
2023/06/03 12:04:31;;;;;;;3.17;1.65;;;22.30;48.20;;;;;;5000804;28;20058;-59
2023/06/03 12:06:58;;;;;;;8.93;1.67;;;22.40;49.60;;;;;;4999970;28;20045;-59
2023/06/03 12:09:27;;;;;;;2.88;1.77;;;22.50;49.00;;;;;;4998436;28;20022;-58
2023/06/03 12:11:56;;;;;;;3.75;1.17;;;22.60;48.70;;;;;;4998185;28;20565;-59
2023/06/03 12:14:33;;;;;;;2.15;1.55;;;22.80;47.10;;;;;;4998659;28;20027;-59
2023/06/03 12:17:18;;;;;;;3.97;1.20;;;22.80;50.80;;;;;;5000850;28;20026;-58
2023/06/03 12:19:49;;;;;;;3.75;1.40;;;23.00;48.30;;;;;;4999284;28;20113;-58
2023/06/03 12:22:28;;;;;;;1.75;0.90;;;23.00;48.20;;;;;;4998755;28;20449;-60
2023/06/03 12:24:54;;;;;;;1.90;1.20;;;23.00;47.10;;;;;;4998766;28;20018;-60
2023/06/03 12:27:21;;;;;;;2.38;1.25;;;23.00;46.90;;;;;;5002243;28;20032;-59
2023/06/03 12:29:57;;;;;;;2.55;1.10;;;23.10;46.20;;;;;;4999775;28;20027;-60
2023/06/03 12:32:25;;;;;;;6.43;1.50;;;23.30;46.50;;;;;;4996072;28;20867;-60
2023/06/03 12:34:51;;;;;;;4.15;1.73;;;23.40;46.20;;;;;;5001834;28;20030;-59
2023/06/03 12:37:29;;;;;;;2.80;1.55;;;23.40;46.00;;;;;;4989718;28;20509;-59
2023/06/03 12:39:57;;;;;;;1.73;1.20;;;23.30;47.60;;;;;;5000044;28;20120;-58
2023/06/03 12:42:37;;;;;;;2.50;1.60;;;23.20;45.40;;;;;;4978403;28;20029;-58
2023/06/03 12:45:05;;;;;;;2.85;1.23;;;23.00;45.40;;;;;;5001394;28;20026;-60
2023/06/03 12:47:49;;;;;;;3.13;1.58;;;23.10;47.40;;;;;;4997941;28;20034;-60
2023/06/03 12:50:18;;;;;;;5.00;1.40;;;23.10;47.30;;;;;;5000357;28;20038;-59
2023/06/03 12:52:45;;;;;;;2.30;1.20;;;23.10;47.30;;;;;;4998344;28;20129;-61
2023/06/03 12:55:14;;;;;;;4.13;1.38;;;23.20;47.00;;;;;;4996207;28;20392;-60
2023/06/03 12:57:41;;;;;;;2.30;1.40;;;23.30;47.30;;;;;;4993614;28;20058;-60